createdAt,value
2022-08-03T00:00:27.267Z,15.25
2022-08-03T00:02:54.048Z,15.23
2022-08-03T00:05:20.860Z,15.20
2022-08-03T00:07:49.390Z,15.16
2022-08-03T00:10:17.070Z,15.09
2022-08-03T00:12:43.716Z,15.02
2022-08-03T00:15:15.194Z,15.01
2022-08-03T00:17:52.322Z,15.12
2022-08-03T00:20:24.256Z,15.12
2022-08-03T00:22:51.722Z,15.04
2022-08-03T00:25:19.241Z,15.00
2022-08-03T00:27:45.849Z,15.04
2022-08-03T00:30:15.223Z,15.10
2022-08-03T00:32:45.105Z,15.07
2022-08-03T00:35:32.518Z,15.11
2022-08-03T00:38:00.252Z,15.09
2022-08-03T00:40:27.313Z,15.13
2022-08-03T00:43:00.941Z,15.07
2022-08-03T00:45:34.855Z,14.98
2022-08-03T00:48:02.479Z,14.91
2022-08-03T00:50:31.910Z,14.83
2022-08-03T00:53:00.163Z,14.76
2022-08-03T00:55:27.313Z,14.75
2022-08-03T00:57:54.177Z,14.74
2022-08-03T01:00:25.473Z,14.63
2022-08-03T01:02:53.968Z,14.57
2022-08-03T01:05:23.571Z,14.53
2022-08-03T01:08:05.497Z,14.55
2022-08-03T01:10:46.212Z,14.54
2022-08-03T01:14:02.010Z,14.52
2022-08-03T01:16:36.826Z,14.41
2022-08-03T01:19:06.806Z,14.34
2022-08-03T01:21:46.859Z,14.30
2022-08-03T01:24:19.757Z,14.25
2022-08-03T01:27:15.922Z,14.22
2022-08-03T01:29:57.632Z,14.22
2022-08-03T01:32:59.977Z,14.23
2022-08-03T01:35:29.338Z,14.20
2022-08-03T01:38:03.826Z,14.17
2022-08-03T01:40:34.330Z,14.12
2022-08-03T01:43:03.470Z,14.11
2022-08-03T01:45:34.232Z,14.14
2022-08-03T01:48:02.765Z,14.13
2022-08-03T01:50:32.254Z,14.11
2022-08-03T01:52:59.967Z,14.06
2022-08-03T01:55:30.092Z,14.14
2022-08-03T01:58:05.351Z,14.12
2022-08-03T02:00:37.439Z,14.06
2022-08-03T02:03:08.899Z,14.02
2022-08-03T02:05:37.368Z,14.00
2022-08-03T02:08:05.273Z,14.00
2022-08-03T02:10:34.751Z,13.93
2022-08-03T02:13:04.350Z,14.02
2022-08-03T02:15:33.851Z,13.95
2022-08-03T02:18:03.352Z,13.92
2022-08-03T02:20:33.489Z,13.87
2022-08-03T02:23:00.190Z,13.84
2022-08-03T02:25:27.135Z,13.85
2022-08-03T02:28:00.782Z,13.87
2022-08-03T02:30:33.399Z,13.89
2022-08-03T02:33:02.143Z,13.83
2022-08-03T02:35:30.639Z,13.80
2022-08-03T02:38:02.576Z,13.79
2022-08-03T02:40:31.371Z,13.78
2022-08-03T02:43:05.378Z,13.76
2022-08-03T02:45:36.050Z,13.74
2022-08-03T02:48:05.425Z,13.75
2022-08-03T02:50:36.171Z,13.85
2022-08-03T02:53:04.297Z,13.88
2022-08-03T02:55:34.162Z,13.86
2022-08-03T02:58:01.570Z,13.83
2022-08-03T03:00:31.434Z,13.83
2022-08-03T03:03:00.439Z,13.87
2022-08-03T03:05:56.115Z,13.95
2022-08-03T03:08:20.626Z,13.91
2022-08-03T03:10:55.701Z,13.91
2022-08-03T03:13:23.450Z,13.94
2022-08-03T03:15:52.185Z,13.99
2022-08-03T03:18:22.778Z,14.02
2022-08-03T03:20:51.756Z,14.09
2022-08-03T03:23:20.164Z,14.14
2022-08-03T03:25:46.866Z,14.20
2022-08-03T03:28:13.626Z,14.22
2022-08-03T03:30:40.239Z,14.27
2022-08-03T03:33:07.537Z,14.32
2022-08-03T03:35:37.081Z,14.35
2022-08-03T03:38:05.673Z,14.35
2022-08-03T03:40:32.493Z,14.42
2022-08-03T03:42:59.137Z,14.47
2022-08-03T03:45:27.658Z,14.52
2022-08-03T03:47:55.765Z,14.48
2022-08-03T03:50:23.916Z,14.47
2022-08-03T03:52:50.495Z,14.48
2022-08-03T03:55:18.669Z,14.53
2022-08-03T03:57:45.721Z,14.72
2022-08-03T04:00:14.152Z,14.91
2022-08-03T04:02:40.987Z,15.06
2022-08-03T04:05:31.420Z,14.97
2022-08-03T04:08:25.815Z,15.02
2022-08-03T04:11:01.090Z,14.95
2022-08-03T04:13:33.563Z,14.88
2022-08-03T04:16:01.297Z,14.76
2022-08-03T04:18:32.699Z,14.77
2022-08-03T04:21:04.477Z,14.74
2022-08-03T04:23:34.760Z,14.78
2022-08-03T04:26:05.534Z,14.76
2022-08-03T04:28:34.276Z,14.77
2022-08-03T04:31:03.553Z,14.83
2022-08-03T04:33:33.486Z,14.84
2022-08-03T04:36:06.353Z,14.86
2022-08-03T04:38:38.952Z,14.96
2022-08-03T04:41:07.484Z,14.95
2022-08-03T04:43:34.760Z,14.98
2022-08-03T04:46:02.608Z,14.95
2022-08-03T04:48:29.430Z,15.00
2022-08-03T04:50:56.077Z,14.97
2022-08-03T04:53:23.818Z,14.99
2022-08-03T04:55:50.506Z,15.10
2022-08-03T04:58:17.129Z,15.40
2022-08-03T05:00:45.613Z,15.86
2022-08-03T05:03:19.425Z,16.23
2022-08-03T05:05:52.597Z,16.22
2022-08-03T05:08:20.755Z,16.51
2022-08-03T05:10:55.596Z,16.87
2022-08-03T05:13:25.731Z,17.09
2022-08-03T05:15:52.587Z,17.26
2022-08-03T05:18:19.262Z,17.43
2022-08-03T05:20:45.943Z,18.18
2022-08-03T05:23:12.599Z,19.16
2022-08-03T05:25:39.425Z,20.40
2022-08-03T05:28:06.054Z,20.73
2022-08-03T05:30:34.368Z,20.46
2022-08-03T05:33:02.532Z,20.68
2022-08-03T05:36:02.452Z,20.94
2022-08-03T05:38:23.685Z,21.35
2022-08-03T05:40:57.439Z,22.03
2022-08-03T05:43:38.526Z,21.98
2022-08-03T05:46:12.827Z,23.25
2022-08-03T05:48:40.395Z,24.02
2022-08-03T05:51:11.320Z,23.11
2022-08-03T05:53:38.865Z,23.21
2022-08-03T05:56:13.969Z,23.47
2022-08-03T05:58:44.875Z,23.98
2022-08-03T06:01:11.776Z,23.85
2022-08-03T06:03:38.441Z,24.21
2022-08-03T06:06:05.094Z,24.50
2022-08-03T06:08:31.635Z,25.17
2022-08-03T06:10:58.157Z,26.08
2022-08-03T06:13:24.668Z,26.80
2022-08-03T06:15:51.279Z,27.73
2022-08-03T06:18:17.881Z,28.32
2022-08-03T06:20:44.477Z,28.78
2022-08-03T06:23:17.679Z,28.57
2022-08-03T06:25:44.935Z,28.71
2022-08-03T06:31:00.980Z,28.28
2022-08-03T06:34:31.426Z,29.81
2022-08-03T06:36:14.417Z,28.80
2022-08-03T06:38:40.995Z,29.41
2022-08-03T06:41:07.490Z,29.73
2022-08-03T06:43:37.628Z,30.03
2022-08-03T06:46:05.689Z,30.56
2022-08-03T06:48:32.545Z,30.38
2022-08-03T06:50:59.551Z,29.12
2022-08-03T06:53:26.396Z,29.93
2022-08-03T06:55:55.037Z,29.88
2022-08-03T06:58:22.379Z,30.10
2022-08-03T07:00:49.071Z,29.44
2022-08-03T07:03:15.990Z,28.92
2022-08-03T07:05:43.842Z,29.42
2022-08-03T07:08:10.612Z,29.02
2022-08-03T07:10:37.319Z,29.71
2022-08-03T07:13:06.964Z,29.67
2022-08-03T07:15:55.374Z,29.40
2022-08-03T07:18:29.343Z,30.01
2022-08-03T07:20:58.638Z,30.02
2022-08-03T07:23:25.756Z,29.73
2022-08-03T07:25:54.890Z,30.06
2022-08-03T07:28:23.704Z,29.45
2022-08-03T07:30:52.499Z,29.42
2022-08-03T07:33:19.190Z,29.54
2022-08-03T07:35:45.802Z,29.27
2022-08-03T07:38:12.599Z,28.82
2022-08-03T07:40:44.409Z,29.25
2022-08-03T07:43:12.824Z,28.96
2022-08-03T07:45:39.869Z,29.07
2022-08-03T07:48:11.960Z,29.50
2022-08-03T07:50:39.340Z,29.12
2022-08-03T07:53:05.968Z,28.80
2022-08-03T07:55:35.773Z,28.91
2022-08-03T07:58:03.966Z,29.73
2022-08-03T08:00:30.593Z,30.66
2022-08-03T08:02:57.192Z,30.30
2022-08-03T08:05:23.927Z,29.86
2022-08-03T08:07:50.809Z,29.84
2022-08-03T08:10:18.487Z,29.46
2022-08-03T08:12:45.104Z,29.81
2022-08-03T08:15:11.949Z,30.43
2022-08-03T08:17:50.426Z,31.50
2022-08-03T08:20:25.212Z,31.69
2022-08-03T08:22:57.687Z,32.32
2022-08-03T08:25:25.518Z,31.71
2022-08-03T08:28:31.261Z,30.96
2022-08-03T08:30:39.231Z,30.47
2022-08-03T08:33:06.648Z,30.97
2022-08-03T08:35:33.153Z,31.01
2022-08-03T08:38:05.558Z,31.20
2022-08-03T08:40:33.497Z,31.72
2022-08-03T08:43:00.468Z,32.54
2022-08-03T08:45:27.732Z,32.33
2022-08-03T08:47:59.894Z,33.33
2022-08-03T08:50:28.461Z,32.95
2022-08-03T08:52:55.200Z,32.64
2022-08-03T08:55:24.113Z,33.40
2022-08-03T08:58:10.943Z,33.33
2022-08-03T09:00:37.603Z,31.89
2022-08-03T09:03:05.015Z,31.47
2022-08-03T09:05:54.936Z,31.11
2022-08-03T09:08:19.988Z,31.22
2022-08-03T09:10:46.517Z,31.41
2022-08-03T09:13:13.424Z,31.89
2022-08-03T09:15:40.525Z,32.23
2022-08-03T09:18:30.529Z,31.80
2022-08-03T09:21:32.229Z,32.33
2022-08-03T09:24:03.784Z,32.75
2022-08-03T09:26:33.673Z,33.43
2022-08-03T09:29:08.174Z,33.30
2022-08-03T09:31:43.735Z,32.40
2022-08-03T09:34:16.358Z,31.55
2022-08-03T09:36:47.982Z,32.16
2022-08-03T09:39:19.472Z,33.22
2022-08-03T09:42:04.952Z,33.40
2022-08-03T09:44:42.311Z,33.46
2022-08-03T09:47:22.793Z,34.00
2022-08-03T09:50:04.584Z,33.82
2022-08-03T09:52:49.169Z,33.80
2022-08-03T09:56:31.584Z,33.74
2022-08-03T09:58:09.553Z,33.98
2022-08-03T10:00:57.610Z,33.97
2022-08-03T10:03:26.217Z,33.97
2022-08-03T10:05:59.075Z,34.20
2022-08-03T10:08:26.926Z,34.56
2022-08-03T10:10:58.841Z,34.73
2022-08-03T10:13:25.732Z,34.41
2022-08-03T10:16:24.017Z,33.49
2022-08-03T10:18:40.218Z,33.84
2022-08-03T10:21:12.833Z,33.89
2022-08-03T10:23:41.647Z,33.61
2022-08-03T10:26:16.330Z,33.09
2022-08-03T10:28:48.840Z,33.68
2022-08-03T10:31:18.585Z,33.50
2022-08-03T10:33:52.908Z,32.87
2022-08-03T10:36:24.268Z,33.20
2022-08-03T10:38:53.278Z,33.73
2022-08-03T10:41:27.114Z,34.40
2022-08-03T10:44:06.508Z,33.84
2022-08-03T10:46:35.147Z,33.98
2022-08-03T10:49:02.940Z,34.05
2022-08-03T10:51:32.287Z,33.64
2022-08-03T10:54:01.609Z,34.41
2022-08-03T10:56:53.550Z,33.93
2022-08-03T10:59:47.205Z,34.22
2022-08-03T11:02:15.509Z,34.56
2022-08-03T11:04:42.978Z,34.51
2022-08-03T11:07:22.784Z,33.99
2022-08-03T11:09:54.070Z,33.30
2022-08-03T11:12:31.483Z,33.33
2022-08-03T11:15:08.933Z,33.55
2022-08-03T11:17:46.517Z,33.85
2022-08-03T11:20:47.520Z,33.36
2022-08-03T11:23:15.274Z,32.53
2022-08-03T11:32:38.277Z,30.54
2022-08-03T11:35:16.576Z,31.10
2022-08-03T11:38:03.095Z,32.03
2022-08-03T11:40:52.535Z,32.73
2022-08-03T11:43:21.862Z,33.15
2022-08-03T11:46:03.839Z,33.12
2022-08-03T11:48:37.901Z,32.58
2022-08-03T11:51:07.417Z,31.65
2022-08-03T11:53:34.269Z,31.32
2022-08-03T11:56:12.641Z,31.75
2022-08-03T11:59:01.689Z,32.46
2022-08-03T12:01:35.626Z,32.87
2022-08-03T12:04:06.552Z,32.78
2022-08-03T12:06:55.213Z,31.94
2022-08-03T12:09:22.188Z,31.23
2022-08-03T12:11:50.801Z,30.93
2022-08-03T12:14:48.940Z,31.14
2022-08-03T12:17:14.124Z,31.26
2022-08-03T12:19:44.590Z,30.82
2022-08-03T12:22:11.156Z,30.74
2022-08-03T12:24:42.707Z,30.63
2022-08-03T12:27:09.406Z,30.61
2022-08-03T12:29:36.362Z,30.84
2022-08-03T12:32:03.159Z,30.97
2022-08-03T12:34:47.416Z,30.82
2022-08-03T12:37:21.794Z,30.82
2022-08-03T12:40:09.459Z,30.80
2022-08-03T12:42:38.577Z,30.83
2022-08-03T12:45:21.603Z,30.72
2022-08-03T12:47:59.911Z,30.49
2022-08-03T12:50:32.022Z,30.62
2022-08-03T12:53:03.030Z,30.66
2022-08-03T12:55:57.004Z,30.65
2022-08-03T12:58:33.931Z,30.87
2022-08-03T13:01:04.766Z,30.66
2022-08-03T13:03:42.696Z,30.83
2022-08-03T13:06:17.778Z,30.74
2022-08-03T13:08:44.654Z,30.65
2022-08-03T13:11:43.463Z,30.61
2022-08-03T13:14:15.273Z,30.80
2022-08-03T13:16:46.426Z,30.56
2022-08-03T13:19:15.466Z,30.59
2022-08-03T13:21:53.496Z,30.91
2022-08-03T13:24:30.536Z,30.76
2022-08-03T13:26:58.615Z,30.85
2022-08-03T13:29:25.125Z,30.78
2022-08-03T13:31:51.694Z,30.79
2022-08-03T13:34:23.049Z,30.77
2022-08-03T13:37:08.421Z,30.99
2022-08-03T13:39:58.109Z,30.90
2022-08-03T13:42:22.652Z,30.97
2022-08-03T13:44:49.168Z,30.82
2022-08-03T13:47:16.213Z,30.94
2022-08-03T13:49:42.915Z,30.98
2022-08-03T13:52:26.114Z,31.12
2022-08-03T13:54:52.670Z,31.08
2022-08-03T13:58:04.730Z,31.06
2022-08-03T14:00:07.135Z,30.94
2022-08-03T14:02:33.679Z,30.81
2022-08-03T14:05:00.219Z,30.51
2022-08-03T14:07:26.785Z,30.33
2022-08-03T14:09:53.267Z,30.60
2022-08-03T14:12:19.790Z,30.94
2022-08-03T14:14:46.300Z,30.83
2022-08-03T14:17:12.789Z,30.58
2022-08-03T14:19:53.138Z,30.69
2022-08-03T14:22:21.441Z,30.47
2022-08-03T14:24:49.326Z,30.55
2022-08-03T14:27:16.257Z,30.63
2022-08-03T14:29:42.769Z,30.81
2022-08-03T14:32:12.886Z,31.18
2022-08-03T14:34:40.361Z,31.38
2022-08-03T14:37:06.911Z,31.43
2022-08-03T14:42:20.495Z,31.22
2022-08-03T14:44:48.071Z,31.17
2022-08-03T14:47:15.845Z,31.35
2022-08-03T14:50:34.483Z,31.29
2022-08-03T14:52:29.340Z,31.12
2022-08-03T14:54:56.051Z,30.93
2022-08-03T14:57:22.889Z,30.70
2022-08-03T14:59:54.145Z,30.48
2022-08-03T15:02:25.557Z,30.49
2022-08-03T15:04:52.887Z,30.60
2022-08-03T15:07:20.698Z,30.66
2022-08-03T15:09:47.859Z,30.61
2022-08-03T15:12:14.519Z,30.63
2022-08-03T15:14:41.155Z,30.69
2022-08-03T15:17:08.808Z,30.78
2022-08-03T15:20:03.628Z,30.60
2022-08-03T15:22:25.451Z,30.93
2022-08-03T15:25:03.926Z,31.00
2022-08-03T15:28:03.745Z,31.22
2022-08-03T15:30:33.904Z,31.18
2022-08-03T15:33:00.448Z,30.91
2022-08-03T15:35:28.894Z,30.70
2022-08-03T15:37:55.420Z,30.70
2022-08-03T15:40:22.019Z,30.95
2022-08-03T15:42:48.696Z,30.98
2022-08-03T15:45:17.751Z,30.78
2022-08-03T15:47:44.848Z,30.57
2022-08-03T15:50:12.471Z,30.49
2022-08-03T15:52:39.023Z,30.59
2022-08-03T15:55:05.996Z,30.54
2022-08-03T15:57:32.594Z,30.55
2022-08-03T15:59:59.266Z,30.52
2022-08-03T16:02:26.154Z,30.47
2022-08-03T16:04:53.678Z,30.31
2022-08-03T16:07:40.492Z,30.31
2022-08-03T16:10:28.732Z,30.43
2022-08-03T16:12:55.534Z,30.40
2022-08-03T16:15:22.401Z,30.29
2022-08-03T16:17:48.959Z,30.31
2022-08-03T16:20:30.791Z,30.17
2022-08-03T16:23:10.779Z,30.19
2022-08-03T16:25:40.063Z,30.14
2022-08-03T16:28:13.534Z,30.16
2022-08-03T16:30:43.090Z,29.90
2022-08-03T16:33:10.527Z,29.67
2022-08-03T16:35:37.199Z,29.65
2022-08-03T16:38:09.603Z,29.49
2022-08-03T16:40:37.279Z,29.67
2022-08-03T16:43:17.941Z,29.76
2022-08-03T16:45:46.664Z,29.80
2022-08-03T16:48:13.879Z,29.70
2022-08-03T16:50:40.504Z,29.67
2022-08-03T16:53:09.130Z,29.66
2022-08-03T16:55:48.780Z,29.62
2022-08-03T16:58:34.277Z,29.56
2022-08-03T17:01:10.926Z,29.65
2022-08-03T17:04:01.842Z,29.50
2022-08-03T17:06:34.381Z,29.40
2022-08-03T17:09:02.135Z,29.28
2022-08-03T17:11:30.284Z,29.06
2022-08-03T17:14:00.142Z,28.91
2022-08-03T17:16:27.132Z,28.78
2022-08-03T17:19:03.943Z,28.74
2022-08-03T17:21:33.097Z,28.74
2022-08-03T17:24:23.623Z,28.69
2022-08-03T17:26:54.026Z,28.62
2022-08-03T17:29:25.134Z,28.56
2022-08-03T17:31:53.328Z,28.44
2022-08-03T17:34:26.201Z,28.41
2022-08-03T17:37:17.813Z,28.33
2022-08-03T17:39:58.304Z,28.24
2022-08-03T17:42:29.989Z,28.23
2022-08-03T17:45:02.529Z,28.24
2022-08-03T17:47:42.752Z,28.20
2022-08-03T17:50:24.341Z,28.12
2022-08-03T17:52:58.700Z,27.97
2022-08-03T17:55:55.170Z,27.73
2022-08-03T17:58:25.403Z,27.58
2022-08-03T18:02:00.801Z,27.40
2022-08-03T18:04:10.919Z,27.25
2022-08-03T18:06:56.518Z,27.10
2022-08-03T18:10:03.938Z,27.22
2022-08-03T18:12:22.751Z,27.04
2022-08-03T18:14:57.885Z,27.03
2022-08-03T18:17:55.787Z,26.90
2022-08-03T18:20:31.259Z,26.71
2022-08-03T18:23:04.631Z,26.51
2022-08-03T18:25:49.118Z,26.37
2022-08-03T18:28:19.311Z,26.23
2022-08-03T18:30:54.600Z,26.10
2022-08-03T18:34:19.727Z,26.11
2022-08-03T18:36:17.402Z,26.19
2022-08-03T18:41:34.703Z,26.06
2022-08-03T18:44:07.651Z,25.93
2022-08-03T18:47:04.961Z,25.69
2022-08-03T18:49:54.231Z,25.52
2022-08-03T18:52:40.189Z,25.38
2022-08-03T18:55:20.022Z,25.27
2022-08-03T18:58:06.413Z,25.32
2022-08-03T19:00:53.824Z,25.37
2022-08-03T19:03:23.971Z,25.38
2022-08-03T19:06:08.611Z,25.27
2022-08-03T19:09:03.145Z,25.07
2022-08-03T19:12:12.645Z,24.92
2022-08-03T19:14:29.631Z,24.79
2022-08-03T19:17:07.021Z,24.67
2022-08-03T19:19:43.637Z,24.79
2022-08-03T19:22:12.748Z,24.99
2022-08-03T19:24:46.294Z,24.92
2022-08-03T19:27:14.247Z,24.82
2022-08-03T19:29:59.534Z,24.63
2022-08-03T19:32:31.474Z,24.45
2022-08-03T19:35:00.139Z,24.31
2022-08-03T19:37:38.013Z,24.19
2022-08-03T19:40:10.321Z,24.10
2022-08-03T19:42:41.144Z,24.14
2022-08-03T19:45:14.217Z,24.18
2022-08-03T19:48:09.869Z,24.32
2022-08-03T19:50:37.794Z,24.31
2022-08-03T19:53:13.176Z,24.02
2022-08-03T19:55:48.855Z,23.84
2022-08-03T19:58:24.338Z,23.69
2022-08-03T20:00:56.087Z,23.59
2022-08-03T20:03:26.276Z,23.49
2022-08-03T20:05:55.044Z,23.65
2022-08-03T20:08:22.118Z,23.80
2022-08-03T20:10:49.824Z,23.83
2022-08-03T20:13:19.460Z,23.78
2022-08-03T20:15:46.690Z,23.67
2022-08-03T20:18:16.822Z,23.54
2022-08-03T20:20:47.994Z,23.43
2022-08-03T20:23:18.162Z,23.35
2022-08-03T20:28:50.088Z,23.22
2022-08-03T20:31:18.720Z,23.42
2022-08-03T20:33:46.624Z,23.41
2022-08-03T20:36:17.783Z,23.47
2022-08-03T20:38:47.083Z,23.51
2022-08-03T20:41:14.903Z,23.37
2022-08-03T20:43:41.922Z,23.18
2022-08-03T20:46:31.377Z,23.09
2022-08-03T20:48:58.824Z,23.05
2022-08-03T20:51:50.158Z,23.00
2022-08-03T20:54:23.181Z,22.94
2022-08-03T20:56:58.785Z,23.05
2022-08-03T20:59:35.033Z,23.17
2022-08-03T21:02:05.897Z,23.22
2022-08-03T21:04:32.522Z,23.03
2022-08-03T21:07:16.388Z,22.69
2022-08-03T21:09:57.147Z,22.49
2022-08-03T21:12:44.621Z,22.38
2022-08-03T21:13:04.112Z,26.18
2022-08-03T21:13:12.684Z,23.29
2022-08-03T21:16:01.171Z,22.28
2022-08-03T21:18:01.916Z,22.16
2022-08-03T21:20:32.661Z,22.06
2022-08-03T21:23:01.293Z,21.99
2022-08-03T21:25:30.489Z,21.90
2022-08-03T21:27:58.066Z,21.80
2022-08-03T21:30:26.891Z,21.75
2022-08-03T21:32:54.771Z,21.64
2022-08-03T21:35:23.734Z,21.52
2022-08-03T21:38:10.042Z,21.41
2022-08-03T21:40:37.235Z,21.30
2022-08-03T21:43:03.914Z,21.27
2022-08-03T21:45:36.213Z,21.20
2022-08-03T21:48:07.501Z,21.12
2022-08-03T21:50:36.668Z,21.04
2022-08-03T21:53:03.498Z,20.95
2022-08-03T21:55:31.024Z,20.96
2022-08-03T21:58:03.621Z,20.95
2022-08-03T22:00:30.883Z,20.90
2022-08-03T22:02:59.291Z,20.82
2022-08-03T22:05:43.816Z,20.77
2022-08-03T22:08:13.372Z,20.74
2022-08-03T22:10:40.869Z,20.66
2022-08-03T22:13:07.763Z,20.60
2022-08-03T22:15:34.762Z,20.52
2022-08-03T22:18:04.595Z,20.49
2022-08-03T22:20:31.382Z,20.43
2022-08-03T22:23:02.559Z,20.38
2022-08-03T22:25:34.086Z,20.30
2022-08-03T22:28:06.046Z,20.25
2022-08-03T22:30:33.877Z,20.15
2022-08-03T22:33:02.389Z,20.11
2022-08-03T22:35:31.834Z,20.02
2022-08-03T22:38:11.679Z,19.94
2022-08-03T22:40:38.969Z,19.88
2022-08-03T22:43:08.551Z,19.79
2022-08-03T22:46:06.139Z,19.71
2022-08-03T22:48:23.054Z,19.72
2022-08-03T22:50:49.964Z,19.71
2022-08-03T22:53:19.339Z,19.78
2022-08-03T22:55:51.504Z,19.68
2022-08-03T22:58:21.115Z,19.57
2022-08-03T23:00:53.925Z,19.57
2022-08-03T23:04:00.955Z,19.42
2022-08-03T23:06:16.338Z,19.33
2022-08-03T23:08:46.494Z,19.30
2022-08-03T23:11:15.779Z,19.31
2022-08-03T23:13:43.099Z,19.28
2022-08-03T23:16:09.873Z,19.22
2022-08-03T23:18:39.622Z,19.06
2022-08-03T23:21:11.626Z,18.97
2022-08-03T23:23:44.540Z,18.95
2022-08-03T23:26:13.321Z,19.03
2022-08-03T23:28:41.462Z,19.10
2022-08-03T23:31:11.893Z,18.98
2022-08-03T23:33:40.807Z,18.82
2022-08-03T23:36:31.052Z,18.69
2022-08-03T23:38:56.281Z,18.63
2022-08-03T23:41:24.286Z,18.59
2022-08-03T23:43:54.104Z,18.51
2022-08-03T23:46:25.838Z,18.44
2022-08-03T23:48:53.793Z,18.40
2022-08-03T23:51:42.384Z,18.35
2022-08-03T23:54:44.476Z,18.38
2022-08-03T23:57:24.026Z,18.38
